sensor_id;sensor_type;location;lat;lon;timestamp;pressure;altitude;pressure_sealevel;temperature;humidity
4449;BME280;2237;51.870;6.160;2023-11-21T00:01:03;100899.41;;;11.20;100.00
4449;BME280;2237;51.870;6.160;2023-11-21T00:03:31;100896.81;;;11.18;100.00
4449;BME280;2237;51.870;6.160;2023-11-21T00:05:57;100908.13;;;11.19;100.00
4449;BME280;2237;51.870;6.160;2023-11-21T00:08:24;100906.44;;;11.16;100.00
4449;BME280;2237;51.870;6.160;2023-11-21T00:10:50;100907.44;;;11.11;100.00
4449;BME280;2237;51.870;6.160;2023-11-21T00:13:17;100906.66;;;11.07;100.00
4449;BME280;2237;51.870;6.160;2023-11-21T00:15:44;100909.31;;;11.04;100.00
4449;BME280;2237;51.870;6.160;2023-11-21T00:18:10;100903.38;;;10.98;100.00
4449;BME280;2237;51.870;6.160;2023-11-21T00:20:37;100912.94;;;10.99;100.00
4449;BME280;2237;51.870;6.160;2023-11-21T00:23:03;100911.19;;;10.98;100.00
4449;BME280;2237;51.870;6.160;2023-11-21T00:25:30;100908.53;;;11.01;100.00
4449;BME280;2237;51.870;6.160;2023-11-21T00:27:57;100913.81;;;10.98;100.00
4449;BME280;2237;51.870;6.160;2023-11-21T00:30:24;100920.75;;;10.97;100.00
4449;BME280;2237;51.870;6.160;2023-11-21T00:32:50;100920.81;;;10.96;100.00
4449;BME280;2237;51.870;6.160;2023-11-21T00:35:17;100916.41;;;10.98;100.00
4449;BME280;2237;51.870;6.160;2023-11-21T00:37:44;100918.22;;;10.94;100.00
4449;BME280;2237;51.870;6.160;2023-11-21T00:40:11;100921.81;;;10.89;100.00
4449;BME280;2237;51.870;6.160;2023-11-21T00:42:38;100925.28;;;10.91;100.00
4449;BME280;2237;51.870;6.160;2023-11-21T00:45:06;100921.88;;;10.87;100.00
4449;BME280;2237;51.870;6.160;2023-11-21T00:47:32;100922.59;;;10.94;100.00
4449;BME280;2237;51.870;6.160;2023-11-21T00:49:59;100922.47;;;11.00;100.00
4449;BME280;2237;51.870;6.160;2023-11-21T00:52:25;100930.19;;;11.04;100.00
4449;BME280;2237;51.870;6.160;2023-11-21T00:54:52;100926.63;;;11.07;100.00
4449;BME280;2237;51.870;6.160;2023-11-21T00:57:18;100926.69;;;11.04;100.00
4449;BME280;2237;51.870;6.160;2023-11-21T00:59:45;100931.91;;;11.04;100.00
4449;BME280;2237;51.870;6.160;2023-11-21T01:02:11;100937.88;;;11.09;100.00
4449;BME280;2237;51.870;6.160;2023-11-21T01:04:38;100933.53;;;11.09;100.00
4449;BME280;2237;51.870;6.160;2023-11-21T01:07:04;100947.41;;;11.11;100.00
4449;BME280;2237;51.870;6.160;2023-11-21T01:09:31;100945.81;;;11.04;100.00
4449;BME280;2237;51.870;6.160;2023-11-21T01:11:58;100953.56;;;11.06;100.00
4449;BME280;2237;51.870;6.160;2023-11-21T01:14:26;100951.81;;;11.08;100.00
4449;BME280;2237;51.870;6.160;2023-11-21T01:16:53;100958.72;;;11.10;100.00
4449;BME280;2237;51.870;6.160;2023-11-21T01:19:20;100956.91;;;11.14;100.00
4449;BME280;2237;51.870;6.160;2023-11-21T01:21:46;100968.88;;;11.22;100.00
4449;BME280;2237;51.870;6.160;2023-11-21T01:24:13;100963.59;;;11.25;100.00
4449;BME280;2237;51.870;6.160;2023-11-21T01:26:39;100971.28;;;11.30;100.00
4449;BME280;2237;51.870;6.160;2023-11-21T01:29:06;100966.94;;;11.29;100.00
4449;BME280;2237;51.870;6.160;2023-11-21T01:31:32;100973.09;;;11.26;100.00
4449;BME280;2237;51.870;6.160;2023-11-21T01:33:59;100979.09;;;11.30;100.00
4449;BME280;2237;51.870;6.160;2023-11-21T01:36:32;100985.94;;;11.35;100.00
4449;BME280;2237;51.870;6.160;2023-11-21T01:39:01;100990.25;;;11.37;100.00
4449;BME280;2237;51.870;6.160;2023-11-21T01:41:34;100993.75;;;11.35;100.00
4449;BME280;2237;51.870;6.160;2023-11-21T01:44:01;100986.97;;;11.28;100.00
4449;BME280;2237;51.870;6.160;2023-11-21T01:46:28;100981.75;;;11.28;100.00
4449;BME280;2237;51.870;6.160;2023-11-21T01:48:55;100981.56;;;11.36;100.00
4449;BME280;2237;51.870;6.160;2023-11-21T01:51:21;100980.66;;;11.39;100.00
4449;BME280;2237;51.870;6.160;2023-11-21T01:53:48;100986.72;;;11.39;100.00
4449;BME280;2237;51.870;6.160;2023-11-21T01:56:15;100988.66;;;11.29;100.00
4449;BME280;2237;51.870;6.160;2023-11-21T01:58:45;100995.63;;;11.30;100.00
4449;BME280;2237;51.870;6.160;2023-11-21T02:01:13;100990.34;;;11.33;100.00
4449;BME280;2237;51.870;6.160;2023-11-21T02:03:40;100988.66;;;11.31;100.00
4449;BME280;2237;51.870;6.160;2023-11-21T02:06:07;100987.97;;;11.23;100.00
4449;BME280;2237;51.870;6.160;2023-11-21T02:08:35;100984.47;;;11.24;100.00
4449;BME280;2237;51.870;6.160;2023-11-21T02:11:04;100982.69;;;11.26;100.00
4449;BME280;2237;51.870;6.160;2023-11-21T02:13:30;100991.19;;;11.34;100.00
4449;BME280;2237;51.870;6.160;2023-11-21T02:15:57;101001.56;;;11.37;100.00
4449;BME280;2237;51.870;6.160;2023-11-21T02:18:24;100997.28;;;11.34;100.00
4449;BME280;2237;51.870;6.160;2023-11-21T02:20:51;100994.75;;;11.30;100.00
4449;BME280;2237;51.870;6.160;2023-11-21T02:23:17;100989.75;;;11.21;100.00
4449;BME280;2237;51.870;6.160;2023-11-21T02:25:44;101008.84;;;11.23;100.00
4449;BME280;2237;51.870;6.160;2023-11-21T02:28:10;101012.41;;;11.17;100.00
4449;BME280;2237;51.870;6.160;2023-11-21T02:30:39;101015.06;;;11.16;100.00
4449;BME280;2237;51.870;6.160;2023-11-21T02:33:05;101018.53;;;11.16;100.00
4449;BME280;2237;51.870;6.160;2023-11-21T02:35:33;101016.97;;;11.08;100.00
4449;BME280;2237;51.870;6.160;2023-11-21T02:37:59;101016.13;;;11.06;100.00
4449;BME280;2237;51.870;6.160;2023-11-21T02:40:26;101022.13;;;11.09;100.00
4449;BME280;2237;51.870;6.160;2023-11-21T02:42:53;101024.72;;;11.11;100.00
4449;BME280;2237;51.870;6.160;2023-11-21T02:45:20;101021.38;;;11.04;100.00
4449;BME280;2237;51.870;6.160;2023-11-21T02:47:47;101017.09;;;11.02;100.00
4449;BME280;2237;51.870;6.160;2023-11-21T02:50:15;101006.06;;;10.91;100.00
4449;BME280;2237;51.870;6.160;2023-11-21T02:52:41;101006.34;;;10.75;100.00
4449;BME280;2237;51.870;6.160;2023-11-21T02:55:08;101018.53;;;10.75;100.00
4449;BME280;2237;51.870;6.160;2023-11-21T02:57:34;101020.94;;;10.84;100.00
4449;BME280;2237;51.870;6.160;2023-11-21T03:00:01;101028.88;;;10.80;100.00
4449;BME280;2237;51.870;6.160;2023-11-21T03:02:28;101014.13;;;10.77;100.00
4449;BME280;2237;51.870;6.160;2023-11-21T03:04:54;101020.19;;;10.79;100.00
4449;BME280;2237;51.870;6.160;2023-11-21T03:07:21;101026.25;;;10.80;100.00
4449;BME280;2237;51.870;6.160;2023-11-21T03:09:48;101026.38;;;10.73;100.00
4449;BME280;2237;51.870;6.160;2023-11-21T03:12:14;101027.22;;;10.74;100.00
4449;BME280;2237;51.870;6.160;2023-11-21T03:14:41;101036.75;;;10.76;100.00
4449;BME280;2237;51.870;6.160;2023-11-21T03:17:07;101031.47;;;10.78;100.00
4449;BME280;2237;51.870;6.160;2023-11-21T03:19:34;101031.41;;;10.81;100.00
4449;BME280;2237;51.870;6.160;2023-11-21T03:22:00;101038.25;;;10.87;100.00
4449;BME280;2237;51.870;6.160;2023-11-21T03:24:27;101041.94;;;10.76;100.00
4449;BME280;2237;51.870;6.160;2023-11-21T03:26:53;101040.97;;;10.81;100.00
4449;BME280;2237;51.870;6.160;2023-11-21T03:29:19;101045.50;;;10.72;100.00
4449;BME280;2237;51.870;6.160;2023-11-21T03:31:46;101046.25;;;10.77;100.00
4449;BME280;2237;51.870;6.160;2023-11-21T03:34:19;101056.66;;;10.79;100.00
4449;BME280;2237;51.870;6.160;2023-11-21T03:36:46;101047.91;;;10.82;100.00
4449;BME280;2237;51.870;6.160;2023-11-21T03:39:13;101051.34;;;10.84;100.00
4449;BME280;2237;51.870;6.160;2023-11-21T03:41:39;101046.19;;;10.82;100.00
4449;BME280;2237;51.870;6.160;2023-11-21T03:44:06;101052.25;;;10.81;100.00
4449;BME280;2237;51.870;6.160;2023-11-21T03:46:32;101051.41;;;10.81;100.00
4449;BME280;2237;51.870;6.160;2023-11-21T03:48:58;101064.47;;;10.79;100.00
4449;BME280;2237;51.870;6.160;2023-11-21T03:51:25;101065.34;;;10.80;100.00
4449;BME280;2237;51.870;6.160;2023-11-21T03:53:51;101061.66;;;10.90;100.00
4449;BME280;2237;51.870;6.160;2023-11-21T03:56:18;101056.56;;;10.84;100.00
4449;BME280;2237;51.870;6.160;2023-11-21T03:58:44;101058.28;;;10.83;100.00
4449;BME280;2237;51.870;6.160;2023-11-21T04:01:11;101064.47;;;10.79;100.00
4449;BME280;2237;51.870;6.160;2023-11-21T04:03:37;101061.88;;;10.77;100.00
4449;BME280;2237;51.870;6.160;2023-11-21T04:06:04;101069.75;;;10.76;100.00
4449;BME280;2237;51.870;6.160;2023-11-21T04:08:32;101068.88;;;10.74;100.00
4449;BME280;2237;51.870;6.160;2023-11-21T04:10:59;101075.66;;;10.83;100.00
4449;BME280;2237;51.870;6.160;2023-11-21T04:13:27;101068.75;;;10.82;100.00
4449;BME280;2237;51.870;6.160;2023-11-21T04:15:53;101070.59;;;10.76;100.00
4449;BME280;2237;51.870;6.160;2023-11-21T04:18:20;101074.25;;;10.68;100.00
4449;BME280;2237;51.870;6.160;2023-11-21T04:20:48;101079.41;;;10.69;100.00
4449;BME280;2237;51.870;6.160;2023-11-21T04:23:15;101084.78;;;10.60;100.00
4449;BME280;2237;51.870;6.160;2023-11-21T04:25:41;101086.63;;;10.55;100.00
4449;BME280;2237;51.870;6.160;2023-11-21T04:28:07;101090.16;;;10.51;100.00
4449;BME280;2237;51.870;6.160;2023-11-21T04:30:34;101100.41;;;10.60;100.00
4449;BME280;2237;51.870;6.160;2023-11-21T04:33:00;101094.56;;;10.48;100.00
4449;BME280;2237;51.870;6.160;2023-11-21T04:35:27;101095.41;;;10.48;100.00
4449;BME280;2237;51.870;6.160;2023-11-21T04:37:53;101090.22;;;10.48;100.00
4449;BME280;2237;51.870;6.160;2023-11-21T04:40:20;101097.19;;;10.46;100.00
4449;BME280;2237;51.870;6.160;2023-11-21T04:42:47;101098.13;;;10.42;100.00
4449;BME280;2237;51.870;6.160;2023-11-21T04:45:13;101112.03;;;10.41;100.00
4449;BME280;2237;51.870;6.160;2023-11-21T04:47:39;101113.84;;;10.38;100.00
4449;BME280;2237;51.870;6.160;2023-11-21T04:50:06;101113.75;;;10.42;100.00
4449;BME280;2237;51.870;6.160;2023-11-21T04:52:32;101116.09;;;10.57;100.00
4449;BME280;2237;51.870;6.160;2023-11-21T04:54:59;101118.69;;;10.59;100.00
4449;BME280;2237;51.870;6.160;2023-11-21T04:57:27;101111.78;;;10.56;100.00
4449;BME280;2237;51.870;6.160;2023-11-21T04:59:54;101126.44;;;10.62;100.00
4449;BME280;2237;51.870;6.160;2023-11-21T05:02:21;101134.22;;;10.63;100.00
4449;BME280;2237;51.870;6.160;2023-11-21T05:05:01;101125.47;;;10.67;100.00
4449;BME280;2237;51.870;6.160;2023-11-21T05:07:28;101137.69;;;10.64;100.00
4449;BME280;2237;51.870;6.160;2023-11-21T05:09:57;101142.94;;;10.61;100.00
4449;BME280;2237;51.870;6.160;2023-11-21T05:12:24;101146.56;;;10.52;100.00
4449;BME280;2237;51.870;6.160;2023-11-21T05:14:51;101152.59;;;10.54;100.00
4449;BME280;2237;51.870;6.160;2023-11-21T05:17:17;101149.06;;;10.58;100.00
4449;BME280;2237;51.870;6.160;2023-11-21T05:19:44;101145.63;;;10.56;100.00
4449;BME280;2237;51.870;6.160;2023-11-21T05:22:15;101159.44;;;10.61;100.00
4449;BME280;2237;51.870;6.160;2023-11-21T05:24:41;101162.75;;;10.69;100.00
4449;BME280;2237;51.870;6.160;2023-11-21T05:27:07;101154.91;;;10.71;100.00
4449;BME280;2237;51.870;6.160;2023-11-21T05:29:35;101160.22;;;10.66;100.00
4449;BME280;2237;51.870;6.160;2023-11-21T05:32:03;101157.78;;;10.56;100.00
4449;BME280;2237;51.870;6.160;2023-11-21T05:34:30;101171.50;;;10.65;100.00
4449;BME280;2237;51.870;6.160;2023-11-21T05:36:56;101173.38;;;10.57;100.00
4449;BME280;2237;51.870;6.160;2023-11-21T05:39:24;101172.59;;;10.52;100.00
4449;BME280;2237;51.870;6.160;2023-11-21T05:41:50;101182.09;;;10.56;100.00
4449;BME280;2237;51.870;6.160;2023-11-21T05:44:17;101180.47;;;10.49;100.00
4449;BME280;2237;51.870;6.160;2023-11-21T05:46:44;101181.28;;;10.53;100.00
4449;BME280;2237;51.870;6.160;2023-11-21T05:49:10;101190.78;;;10.55;100.00
4449;BME280;2237;51.870;6.160;2023-11-21T05:51:37;101182.34;;;10.41;100.00
4449;BME280;2237;51.870;6.160;2023-11-21T05:54:04;101191.84;;;10.44;100.00
4449;BME280;2237;51.870;6.160;2023-11-21T05:56:31;101197.59;;;10.62;100.00
4449;BME280;2237;51.870;6.160;2023-11-21T05:58:57;101193.28;;;10.61;100.00
4449;BME280;2237;51.870;6.160;2023-11-21T06:01:25;101196.00;;;10.55;100.00
4449;BME280;2237;51.870;6.160;2023-11-21T06:03:54;101198.31;;;10.72;100.00
4449;BME280;2237;51.870;6.160;2023-11-21T06:06:25;101201.84;;;10.69;100.00
4449;BME280;2237;51.870;6.160;2023-11-21T06:08:52;101198.34;;;10.70;100.00
4449;BME280;2237;51.870;6.160;2023-11-21T06:11:18;101209.66;;;10.69;100.00
4449;BME280;2237;51.870;6.160;2023-11-21T06:13:45;101213.31;;;10.58;100.00
4449;BME280;2237;51.870;6.160;2023-11-21T06:16:11;101220.41;;;10.48;100.00
4449;BME280;2237;51.870;6.160;2023-11-21T06:18:43;101222.09;;;10.52;100.00
4449;BME280;2237;51.870;6.160;2023-11-21T06:21:10;101219.38;;;10.58;100.00
4449;BME280;2237;51.870;6.160;2023-11-21T06:23:37;101226.09;;;10.71;100.00
4449;BME280;2237;51.870;6.160;2023-11-21T06:26:03;101224.31;;;10.76;100.00
4449;BME280;2237;51.870;6.160;2023-11-21T06:28:31;101229.41;;;10.81;100.00
4449;BME280;2237;51.870;6.160;2023-11-21T06:30:57;101227.69;;;10.80;100.00
4449;BME280;2237;51.870;6.160;2023-11-21T06:33:24;101232.88;;;10.82;100.00
4449;BME280;2237;51.870;6.160;2023-11-21T06:35:53;101228.66;;;10.74;100.00
4449;BME280;2237;51.870;6.160;2023-11-21T06:38:21;101241.69;;;10.74;100.00
4449;BME280;2237;51.870;6.160;2023-11-21T06:40:47;101240.81;;;10.75;100.00
4449;BME280;2237;51.870;6.160;2023-11-21T06:43:14;101243.22;;;10.86;100.00
4449;BME280;2237;51.870;6.160;2023-11-21T06:45:41;101243.94;;;10.96;100.00
4449;BME280;2237;51.870;6.160;2023-11-21T06:48:07;101247.25;;;11.04;100.00
4449;BME280;2237;51.870;6.160;2023-11-21T06:50:34;101252.41;;;11.08;100.00
4449;BME280;2237;51.870;6.160;2023-11-21T06:53:01;101251.38;;;11.17;100.00
4449;BME280;2237;51.870;6.160;2023-11-21T06:55:30;101248.72;;;11.20;100.00
4449;BME280;2237;51.870;6.160;2023-11-21T06:57:57;101250.47;;;11.18;100.00
4449;BME280;2237;51.870;6.160;2023-11-21T07:00:24;101251.44;;;11.12;100.00
4449;BME280;2237;51.870;6.160;2023-11-21T07:02:50;101258.47;;;11.09;100.00
4449;BME280;2237;51.870;6.160;2023-11-21T07:05:17;101264.44;;;11.17;100.00
4449;BME280;2237;51.870;6.160;2023-11-21T07:07:48;101266.06;;;11.21;100.00
4449;BME280;2237;51.870;6.160;2023-11-21T07:10:15;101265.50;;;11.04;100.00
4449;BME280;2237;51.870;6.160;2023-11-21T07:12:41;101268.16;;;11.02;100.00
4449;BME280;2237;51.870;6.160;2023-11-21T07:15:08;101266.28;;;11.10;100.00
4449;BME280;2237;51.870;6.160;2023-11-21T07:17:38;101277.34;;;11.23;100.00
4449;BME280;2237;51.870;6.160;2023-11-21T07:20:07;101273.06;;;11.19;100.00
4449;BME280;2237;51.870;6.160;2023-11-21T07:22:34;101286.19;;;11.14;100.00
4449;BME280;2237;51.870;6.160;2023-11-21T07:25:01;101293.97;;;11.16;100.00
4449;BME280;2237;51.870;6.160;2023-11-21T07:27:27;101299.44;;;11.01;100.00
4449;BME280;2237;51.870;6.160;2023-11-21T07:29:54;101307.16;;;11.07;100.00
4449;BME280;2237;51.870;6.160;2023-11-21T07:32:20;101309.88;;;11.01;100.00
4449;BME280;2237;51.870;6.160;2023-11-21T07:34:47;101316.00;;;10.98;100.00
4449;BME280;2237;51.870;6.160;2023-11-21T07:37:14;101317.63;;;11.04;100.00
4449;BME280;2237;51.870;6.160;2023-11-21T07:39:40;101326.16;;;11.13;100.00
4449;BME280;2237;51.870;6.160;2023-11-21T07:42:08;101330.59;;;11.08;100.00
4449;BME280;2237;51.870;6.160;2023-11-21T07:44:35;101336.00;;;10.95;100.00
4449;BME280;2237;51.870;6.160;2023-11-21T07:47:02;101340.41;;;10.93;100.00
4449;BME280;2237;51.870;6.160;2023-11-21T07:49:30;101338.56;;;10.98;100.00
4449;BME280;2237;51.870;6.160;2023-11-21T07:51:57;101342.00;;;11.01;100.00
4449;BME280;2237;51.870;6.160;2023-11-21T07:54:24;101340.31;;;10.97;100.00
4449;BME280;2237;51.870;6.160;2023-11-21T07:56:50;101347.31;;;10.95;100.00
4449;BME280;2237;51.870;6.160;2023-11-21T07:59:17;101345.53;;;10.99;100.00
4449;BME280;2237;51.870;6.160;2023-11-21T08:01:44;101349.63;;;11.12;100.00
4449;BME280;2237;51.870;6.160;2023-11-21T08:04:12;101350.34;;;11.21;100.00
4449;BME280;2237;51.870;6.160;2023-11-21T08:06:39;101352.97;;;11.21;100.00
4449;BME280;2237;51.870;6.160;2023-11-21T08:09:05;101355.47;;;11.27;100.00
4449;BME280;2237;51.870;6.160;2023-11-21T08:11:34;101362.34;;;11.33;100.00
4449;BME280;2237;51.870;6.160;2023-11-21T08:14:00;101361.31;;;11.43;100.00
4449;BME280;2237;51.870;6.160;2023-11-21T08:16:27;101368.94;;;11.52;100.00
4449;BME280;2237;51.870;6.160;2023-11-21T08:18:54;101376.59;;;11.61;100.00
4449;BME280;2237;51.870;6.160;2023-11-21T08:21:20;101370.41;;;11.67;100.00
4449;BME280;2237;51.870;6.160;2023-11-21T08:23:47;101379.09;;;11.70;100.00
4449;BME280;2237;51.870;6.160;2023-11-21T08:26:20;101385.94;;;11.77;100.00
4449;BME280;2237;51.870;6.160;2023-11-21T08:28:47;101385.03;;;11.78;100.00
4449;BME280;2237;51.870;6.160;2023-11-21T08:31:14;101385.06;;;11.75;100.00
4449;BME280;2237;51.870;6.160;2023-11-21T08:33:41;101385.16;;;11.71;100.00
4449;BME280;2237;51.870;6.160;2023-11-21T08:36:09;101390.50;;;11.63;100.00
4449;BME280;2237;51.870;6.160;2023-11-21T08:38:35;101393.28;;;11.54;100.00
4449;BME280;2237;51.870;6.160;2023-11-21T08:41:05;101402.84;;;11.52;100.00
4449;BME280;2237;51.870;6.160;2023-11-21T08:43:35;101406.41;;;11.48;100.00
4449;BME280;2237;51.870;6.160;2023-11-21T08:46:01;101409.84;;;11.50;100.00
4449;BME280;2237;51.870;6.160;2023-11-21T08:48:28;101424.69;;;11.47;100.00
4449;BME280;2237;51.870;6.160;2023-11-21T08:50:56;101416.13;;;11.39;100.00
4449;BME280;2237;51.870;6.160;2023-11-21T08:53:22;101422.34;;;11.30;100.00
4449;BME280;2237;51.870;6.160;2023-11-21T08:55:49;101425.78;;;11.33;100.00
4449;BME280;2237;51.870;6.160;2023-11-21T08:58:16;101419.56;;;11.42;100.00
4449;BME280;2237;51.870;6.160;2023-11-21T09:00:43;101420.09;;;11.62;100.00
4449;BME280;2237;51.870;6.160;2023-11-21T09:03:13;101419.03;;;11.74;100.00
4449;BME280;2237;51.870;6.160;2023-11-21T09:05:39;101420.56;;;11.85;100.00
4449;BME280;2237;51.870;6.160;2023-11-21T09:08:06;101424.75;;;11.96;100.00
4449;BME280;2237;51.870;6.160;2023-11-21T09:10:34;101425.53;;;12.01;100.00
4449;BME280;2237;51.870;6.160;2023-11-21T09:13:02;101433.63;;;11.85;100.00
4449;BME280;2237;51.870;6.160;2023-11-21T09:15:30;101443.34;;;11.76;100.00
4449;BME280;2237;51.870;6.160;2023-11-21T09:17:57;101441.50;;;11.82;100.00
4449;BME280;2237;51.870;6.160;2023-11-21T09:20:23;101444.84;;;11.90;100.00
4449;BME280;2237;51.870;6.160;2023-11-21T09:22:49;101447.28;;;12.01;100.00
4449;BME280;2237;51.870;6.160;2023-11-21T09:25:16;101447.06;;;12.12;100.00
4449;BME280;2237;51.870;6.160;2023-11-21T09:27:43;101447.72;;;12.23;100.00
4449;BME280;2237;51.870;6.160;2023-11-21T09:30:10;101459.72;;;12.31;100.00
4449;BME280;2237;51.870;6.160;2023-11-21T09:32:40;101457.00;;;12.39;100.00
4449;BME280;2237;51.870;6.160;2023-11-21T09:35:07;101463.72;;;12.49;100.00
4449;BME280;2237;51.870;6.160;2023-11-21T09:37:34;101471.56;;;12.51;100.00
4449;BME280;2237;51.870;6.160;2023-11-21T09:40:05;101479.22;;;12.58;100.00
4449;BME280;2237;51.870;6.160;2023-11-21T09:42:39;101471.28;;;12.63;100.00
4449;BME280;2237;51.870;6.160;2023-11-21T09:45:26;101474.94;;;12.56;100.00
4449;BME280;2237;51.870;6.160;2023-11-21T09:47:55;101480.22;;;12.51;100.00
4449;BME280;2237;51.870;6.160;2023-11-21T09:50:23;101476.78;;;12.51;100.00
4449;BME280;2237;51.870;6.160;2023-11-21T09:55:26;101486.94;;;12.64;100.00
4449;BME280;2237;51.870;6.160;2023-11-21T09:57:56;101496.28;;;12.76;100.00
4449;BME280;2237;51.870;6.160;2023-11-21T10:00:23;101489.13;;;12.85;100.00
4449;BME280;2237;51.870;6.160;2023-11-21T10:02:50;101491.69;;;12.88;100.00
4449;BME280;2237;51.870;6.160;2023-11-21T10:05:19;101499.53;;;12.87;100.00
4449;BME280;2237;51.870;6.160;2023-11-21T10:07:46;101502.13;;;12.88;100.00
4449;BME280;2237;51.870;6.160;2023-11-21T10:10:14;101509.91;;;12.91;100.00
4449;BME280;2237;51.870;6.160;2023-11-21T10:12:49;101515.22;;;12.88;100.00
4449;BME280;2237;51.870;6.160;2023-11-21T10:15:22;101509.81;;;12.94;100.00
4449;BME280;2237;51.870;6.160;2023-11-21T10:17:49;101511.50;;;12.98;100.00
4449;BME280;2237;51.870;6.160;2023-11-21T10:20:16;101519.31;;;13.00;100.00
4449;BME280;2237;51.870;6.160;2023-11-21T10:22:43;101521.09;;;12.98;100.00
4449;BME280;2237;51.870;6.160;2023-11-21T10:25:10;101528.09;;;12.96;100.00
4449;BME280;2237;51.870;6.160;2023-11-21T10:27:37;101538.53;;;12.97;100.00
4449;BME280;2237;51.870;6.160;2023-11-21T10:30:06;101531.78;;;12.86;100.00
4449;BME280;2237;51.870;6.160;2023-11-21T10:32:40;101535.56;;;12.73;100.00
4449;BME280;2237;51.870;6.160;2023-11-21T10:35:08;101541.53;;;12.78;100.00
4449;BME280;2237;51.870;6.160;2023-11-21T10:37:37;101545.78;;;12.83;100.00
4449;BME280;2237;51.870;6.160;2023-11-21T10:40:09;101547.41;;;12.89;100.00
4449;BME280;2237;51.870;6.160;2023-11-21T10:42:40;101546.47;;;12.93;100.00
4449;BME280;2237;51.870;6.160;2023-11-21T10:45:08;101548.03;;;13.03;100.00
4449;BME280;2237;51.870;6.160;2023-11-21T10:47:42;101543.34;;;13.19;100.00
4449;BME280;2237;51.870;6.160;2023-11-21T10:50:10;101538.53;;;13.39;100.00
4449;BME280;2237;51.870;6.160;2023-11-21T10:52:41;101536.38;;;13.56;100.00
4449;BME280;2237;51.870;6.160;2023-11-21T10:55:17;101544.59;;;13.78;100.00
4449;BME280;2237;51.870;6.160;2023-11-21T10:57:46;101538.72;;;14.03;100.00
4449;BME280;2237;51.870;6.160;2023-11-21T11:00:16;101544.34;;;14.22;100.00
4449;BME280;2237;51.870;6.160;2023-11-21T11:02:43;101547.38;;;14.41;100.00
4449;BME280;2237;51.870;6.160;2023-11-21T11:05:09;101547.72;;;14.61;100.00
4449;BME280;2237;51.870;6.160;2023-11-21T11:07:38;101554.06;;;14.83;100.00
4449;BME280;2237;51.870;6.160;2023-11-21T11:10:08;101548.44;;;14.66;100.00
4449;BME280;2237;51.870;6.160;2023-11-21T11:12:46;101542.78;;;14.49;100.00
4449;BME280;2237;51.870;6.160;2023-11-21T11:15:13;101540.91;;;14.20;100.00
4449;BME280;2237;51.870;6.160;2023-11-21T11:17:40;101542.06;;;14.10;100.00
4449;BME280;2237;51.870;6.160;2023-11-21T11:20:09;101543.91;;;14.05;100.00
4449;BME280;2237;51.870;6.160;2023-11-21T11:22:55;101545.84;;;13.98;100.00
4449;BME280;2237;51.870;6.160;2023-11-21T11:25:30;101562.00;;;13.80;100.00
4449;BME280;2237;51.870;6.160;2023-11-21T11:28:07;101570.88;;;13.73;100.00
4449;BME280;2237;51.870;6.160;2023-11-21T11:30:44;101572.47;;;13.43;100.00
4449;BME280;2237;51.870;6.160;2023-11-21T11:38:34;101593.72;;;13.28;100.00
4449;BME280;2237;51.870;6.160;2023-11-21T11:41:06;101590.19;;;13.29;100.00
4449;BME280;2237;51.870;6.160;2023-11-21T11:43:33;101595.47;;;13.28;100.00
4449;BME280;2237;51.870;6.160;2023-11-21T11:46:06;101601.69;;;13.21;100.00
4449;BME280;2237;51.870;6.160;2023-11-21T11:48:37;101612.41;;;13.07;100.00
4449;BME280;2237;51.870;6.160;2023-11-21T11:51:13;101622.97;;;13.02;100.00
4449;BME280;2237;51.870;6.160;2023-11-21T11:53:48;101620.63;;;12.89;100.00
4449;BME280;2237;51.870;6.160;2023-11-21T11:56:24;101617.09;;;12.91;100.00
4449;BME280;2237;51.870;6.160;2023-11-21T11:58:56;101610.94;;;12.94;100.00
4449;BME280;2237;51.870;6.160;2023-11-21T12:01:25;101619.41;;;13.08;100.00
4449;BME280;2237;51.870;6.160;2023-11-21T12:06:37;101636.06;;;13.02;100.00
4449;BME280;2237;51.870;6.160;2023-11-21T12:09:03;101639.59;;;13.00;100.00
4449;BME280;2237;51.870;6.160;2023-11-21T12:11:32;101633.56;;;12.96;100.00
4449;BME280;2237;51.870;6.160;2023-11-21T12:13:58;101636.19;;;12.96;100.00
4449;BME280;2237;51.870;6.160;2023-11-21T12:16:26;101635.19;;;13.02;100.00
4449;BME280;2237;51.870;6.160;2023-11-21T12:18:55;101637.88;;;12.99;100.00
4449;BME280;2237;51.870;6.160;2023-11-21T12:21:22;101639.53;;;13.03;100.00
4449;BME280;2237;51.870;6.160;2023-11-21T12:23:48;101635.06;;;13.11;100.00
4449;BME280;2237;51.870;6.160;2023-11-21T12:26:15;101630.75;;;13.09;100.00
4449;BME280;2237;51.870;6.160;2023-11-21T12:28:41;101636.69;;;13.17;100.00
4449;BME280;2237;51.870;6.160;2023-11-21T12:31:07;101643.44;;;13.27;100.00
4449;BME280;2237;51.870;6.160;2023-11-21T12:33:47;101647.66;;;13.34;100.00
4449;BME280;2237;51.870;6.160;2023-11-21T12:36:14;101639.00;;;13.30;100.00
4449;BME280;2237;51.870;6.160;2023-11-21T12:38:41;101652.19;;;13.26;100.00
4449;BME280;2237;51.870;6.160;2023-11-21T12:41:09;101660.97;;;13.22;100.00
4449;BME280;2237;51.870;6.160;2023-11-21T12:43:36;101676.69;;;13.22;100.00
4449;BME280;2237;51.870;6.160;2023-11-21T12:46:07;101678.59;;;13.14;100.00
4449;BME280;2237;51.870;6.160;2023-11-21T12:48:33;101680.53;;;13.01;100.00
4449;BME280;2237;51.870;6.160;2023-11-21T12:51:00;101687.50;;;13.00;100.00
4449;BME280;2237;51.870;6.160;2023-11-21T12:53:26;101685.00;;;12.94;100.00
4449;BME280;2237;51.870;6.160;2023-11-21T12:55:59;101689.38;;;12.94;100.00
4449;BME280;2237;51.870;6.160;2023-11-21T12:58:27;101686.00;;;12.87;100.00
4449;BME280;2237;51.870;6.160;2023-11-21T13:00:53;101680.13;;;12.76;100.00
4449;BME280;2237;51.870;6.160;2023-11-21T13:03:20;101674.75;;;12.84;100.00
4449;BME280;2237;51.870;6.160;2023-11-21T13:05:53;101680.56;;;12.98;100.00
4449;BME280;2237;51.870;6.160;2023-11-21T13:08:25;101693.41;;;13.15;100.00
4449;BME280;2237;51.870;6.160;2023-11-21T13:10:53;101692.47;;;13.17;100.00
4449;BME280;2237;51.870;6.160;2023-11-21T13:13:23;101696.13;;;13.09;100.00